Valparaiso, FL

1:33 PM CST on February 09, 2016 (GMT -0600)
Eglin Air Force Base | | Change Station
CLOSE
Current Station
Airport
Location: Valparaiso,
Elevation: 85 ft
Nearby Weather Stations
Active Advisory: Wind Advisory

Elev 85 ft 30.48 °N, 86.53 °W | Updated 38 minutes ago

Partly Cloudy
Partly Cloudy
52 °F
Feels Like 52 °F
N
21
Wind Variable Wind from WNW

Today
High -- | Low -- °F
--% Chance of Precip.
Yesterday
High -- | Low -- °F
Precip. -- in
Pressure 29.99 in
Visibility 10.0 miles
Clouds Few 5000 ft
Few 14000 ft
Dew Point 13 °F
Humidity 21%
Rainfall 0.00 in
Snow Depth Not available.
6:31 AM 5:29 PM
New Moon, 2% visible
METAR KVPS 091855Z 30018KT 10SM FEW050 FEW140 11/M11 A2997 RMK AO2A PK WND 31028/1833 SLP156 FU NE T01111108 $
Pressure 29.99 in
Visibility 10.0 miles
Clouds Few 5000 ft
Few 14000 ft
Dew Point 13 °F
Humidity 21%
Rainfall 0.00 in
Snow Depth Not available.
6:31 AM 5:29 PM
New Moon, 2% visible
METAR KVPS 091855Z 30018KT 10SM FEW050 FEW140 11/M11 A2997 RMK AO2A PK WND 31028/1833 SLP156 FU NE T01111108 $

10-Day Weather Forecast

Almanac

Astronomy

Feb. 09, 2016 Rise Set
Actual Time
Civil Twilight
Nautical Twilight
Astronomical Twilight
Moon
Length of Visible Light
Length of Day
Tomorrow will be .
, % of the Moon is Illuminated

Today's Extremes

State Highs State Lows

Community

WunderPhotos

Upload Photos

1,891,668 photos uploaded!

WunderBlog® & News

Nearby

Air Quality

  Air Quality AQ Index Pollutant
Not available.

Snow Depth

Station Depth Elevation

Earthquake Activity

City Distance Mag. Time & Date
Minimum magnitude displayed is 2.5.

Coastal Water Temperatures

Place Temperature

Stations

Nearby Weather Stations

Station Location Temp. Windchill Dew Point Humidity Wind Precip. Elev Updated Type
                   

Watches & Warnings

Wind Advisory
Issued: 9:22 AM CST Feb. 9, 2016 – National Weather Service

... Wind Advisory remains in effect until 5 PM CST this
afternoon...

* timing... mid morning through late afternoon.

* Winds... west to northwest winds increasing to 20 to 25 mph
with frequent higher gusts in excess of 30 mph.

Precautionary/preparedness actions...

A Wind Advisory means that winds of 30 to 39 mph are expected.
Winds this strong can make driving difficult... especially for
high profile vehicles. Use extra caution.